Time;durP1;ratioP1;P1;durP2;ratioP2;P2;SDS_P1;SDS_P2;PMS_P1;PMS_P2;Temp;Humidity;BMP_temperature;BMP_pressure;BME280_temperature;BME280_humidity;BME280_pressure;Samples;Min_cycle;Max_cycle;Signal;HPM_P1;HPM_P2
2021/04/14 00:00:23;;;;;;;5.83;4.70;;;3.00;95.30;;;;;;4343026;33;20228;-61
2021/04/14 00:02:50;;;;;;;11.10;5.23;;;3.00;95.30;;;;;;4341713;33;20631;-60
2021/04/14 00:05:19;;;;;;;8.53;5.23;;;3.00;95.30;;;;;;4330634;33;20165;-62
2021/04/14 00:07:46;;;;;;;7.13;5.17;;;3.00;95.40;;;;;;4342996;33;20173;-60
2021/04/14 00:10:15;;;;;;;7.47;4.03;;;2.90;95.60;;;;;;4339909;33;20703;-62
2021/04/14 00:12:41;;;;;;;6.03;4.43;;;2.90;95.60;;;;;;4338432;33;20172;-61
2021/04/14 00:15:13;;;;;;;5.63;4.20;;;2.80;95.80;;;;;;4343498;33;20260;-62
2021/04/14 00:17:40;;;;;;;5.90;4.10;;;2.80;96.00;;;;;;4340082;33;20624;-63
2021/04/14 00:20:09;;;;;;;5.70;4.13;;;2.80;95.60;;;;;;4338563;33;20217;-60
2021/04/14 00:22:37;;;;;;;8.43;4.70;;;2.80;95.50;;;;;;4343504;33;20209;-62
2021/04/14 00:25:05;;;;;;;7.00;4.50;;;2.80;95.50;;;;;;4342829;33;20181;-64
2021/04/14 00:27:35;;;;;;;6.77;4.57;;;2.80;95.60;;;;;;4344129;33;20161;-61
2021/04/14 00:30:02;;;;;;;7.63;4.73;;;2.80;95.50;;;;;;4346849;33;20177;-62
2021/04/14 00:32:28;;;;;;;6.13;4.10;;;2.80;95.70;;;;;;4341077;33;20263;-61
2021/04/14 00:34:55;;;;;;;6.90;4.00;;;2.80;95.60;;;;;;4343041;33;20249;-64
2021/04/14 00:37:23;;;;;;;6.43;4.27;;;2.90;95.50;;;;;;4345485;33;20213;-61
2021/04/14 00:39:51;;;;;;;7.83;4.47;;;2.90;95.60;;;;;;4335875;33;20257;-63
2021/04/14 00:42:17;;;;;;;5.07;3.97;;;3.00;95.40;;;;;;4344507;32;20187;-63
2021/04/14 00:44:45;;;;;;;6.20;4.33;;;3.00;95.50;;;;;;4344414;33;20576;-60
2021/04/14 00:47:11;;;;;;;8.53;4.77;;;3.00;95.40;;;;;;4344561;33;20180;-59
2021/04/14 00:49:38;;;;;;;9.23;4.53;;;3.00;95.00;;;;;;4349252;33;20247;-58
2021/04/14 00:52:04;;;;;;;4.80;3.90;;;3.00;94.70;;;;;;4340427;33;20196;-61
2021/04/14 00:54:31;;;;;;;8.77;4.57;;;3.10;95.00;;;;;;4340525;33;20188;-61
2021/04/14 00:56:58;;;;;;;7.20;5.23;;;3.00;94.90;;;;;;4340462;33;20271;-63
2021/04/14 00:59:24;;;;;;;7.87;5.13;;;3.00;94.70;;;;;;4337736;33;20220;-60
2021/04/14 01:01:51;;;;;;;6.57;4.63;;;3.00;94.90;;;;;;4338358;33;20149;-63
2021/04/14 01:04:17;;;;;;;11.00;6.33;;;2.90;95.20;;;;;;4334243;33;20173;-59
2021/04/14 01:06:44;;;;;;;8.07;4.90;;;2.90;95.20;;;;;;4339522;33;20173;-60
2021/04/14 01:09:11;;;;;;;8.07;4.90;;;3.00;95.40;;;;;;4346372;33;20173;-63
2021/04/14 01:11:37;;;;;;;7.03;5.10;;;3.10;95.30;;;;;;4346921;33;20191;-61
2021/04/14 01:14:04;;;;;;;8.07;5.20;;;3.00;95.30;;;;;;4344202;32;20217;-61
2021/04/14 01:16:31;;;;;;;12.07;5.37;;;3.10;95.50;;;;;;4346403;33;20179;-61
2021/04/14 01:19:06;;;;;;;7.43;5.53;;;3.10;95.20;;;;;;4345644;33;20520;-62
2021/04/14 01:21:37;;;;;;;10.33;5.93;;;3.10;95.10;;;;;;4338671;33;20157;-60
2021/04/14 01:24:07;;;;;;;9.40;5.77;;;3.10;94.90;;;;;;4345550;32;20549;-64
2021/04/14 01:26:34;;;;;;;8.53;5.80;;;3.10;95.00;;;;;;4345830;33;20191;-59
2021/04/14 01:29:00;;;;;;;7.97;5.57;;;3.10;95.00;;;;;;4337761;33;20511;-61
2021/04/14 01:31:32;;;;;;;7.63;5.73;;;3.20;95.00;;;;;;4341310;33;20181;-59
2021/04/14 01:34:03;;;;;;;8.10;5.30;;;3.20;95.10;;;;;;4336075;33;20197;-60
2021/04/14 01:36:29;;;;;;;7.70;5.43;;;3.20;95.20;;;;;;4339983;33;20168;-60
2021/04/14 01:38:56;;;;;;;7.87;5.37;;;3.20;95.30;;;;;;4347076;32;20606;-59
2021/04/14 01:41:23;;;;;;;9.93;5.50;;;3.30;95.50;;;;;;4346734;33;20169;-61
2021/04/14 01:43:49;;;;;;;7.67;5.57;;;3.30;95.60;;;;;;4345562;33;20188;-61
2021/04/14 01:46:15;;;;;;;8.17;5.00;;;3.30;95.60;;;;;;4339343;32;20195;-61
2021/04/14 01:48:42;;;;;;;8.87;4.90;;;3.30;95.70;;;;;;4344921;33;20185;-59
2021/04/14 01:51:08;;;;;;;7.63;5.57;;;3.30;95.40;;;;;;4342367;33;20240;-60
2021/04/14 01:53:34;;;;;;;7.10;5.77;;;3.40;95.50;;;;;;4339804;33;20620;-60
2021/04/14 01:56:02;;;;;;;9.70;6.00;;;3.40;95.60;;;;;;4346789;33;20187;-59
2021/04/14 01:58:30;;;;;;;9.83;5.80;;;3.40;95.10;;;;;;4344372;33;20172;-61
2021/04/14 02:01:00;;;;;;;10.20;5.90;;;3.40;95.10;;;;;;4339351;33;20176;-63
2021/04/14 02:03:28;;;;;;;7.60;5.33;;;3.40;95.10;;;;;;4345830;33;20157;-60
2021/04/14 02:05:55;;;;;;;7.23;5.47;;;3.40;94.80;;;;;;4343679;33;20193;-63
2021/04/14 02:08:22;;;;;;;8.10;5.80;;;3.40;95.10;;;;;;4344633;33;20255;-60
2021/04/14 02:10:53;;;;;;;7.20;5.60;;;3.40;95.20;;;;;;4334078;33;20249;-63
2021/04/14 02:13:23;;;;;;;12.00;6.23;;;3.40;95.10;;;;;;4336333;33;20153;-61
2021/04/14 02:15:50;;;;;;;6.87;5.63;;;3.30;95.00;;;;;;4342466;33;20168;-59
2021/04/14 02:18:17;;;;;;;8.23;6.23;;;3.30;95.30;;;;;;4346217;33;20220;-60
2021/04/14 02:20:43;;;;;;;9.90;5.83;;;3.30;95.50;;;;;;4338089;33;20189;-58
2021/04/14 02:23:15;;;;;;;13.67;6.60;;;3.30;95.60;;;;;;4345959;33;20514;-63
2021/04/14 02:25:42;;;;;;;12.07;6.10;;;3.30;95.70;;;;;;4344689;33;20172;-58
2021/04/14 02:28:08;;;;;;;6.93;5.57;;;3.30;95.70;;;;;;4345162;33;20243;-62
2021/04/14 02:30:36;;;;;;;11.23;6.33;;;3.20;95.30;;;;;;4347834;33;20236;-62
2021/04/14 02:33:07;;;;;;;8.10;5.67;;;3.20;95.70;;;;;;4337979;33;20149;-62
2021/04/14 02:35:35;;;;;;;6.23;5.30;;;3.10;95.60;;;;;;4341208;33;20212;-60
2021/04/14 02:38:01;;;;;;;7.80;6.20;;;3.00;96.00;;;;;;4344757;33;20166;-60
2021/04/14 02:40:28;;;;;;;10.50;6.27;;;3.00;96.20;;;;;;4345316;33;20180;-60
2021/04/14 02:42:54;;;;;;;6.50;5.30;;;2.90;96.40;;;;;;4347156;33;20651;-59
2021/04/14 02:45:23;;;;;;;9.47;6.30;;;2.90;96.40;;;;;;4342974;33;20283;-60
2021/04/14 02:47:50;;;;;;;7.33;5.80;;;2.90;96.40;;;;;;4346136;33;20181;-61
2021/04/14 02:50:17;;;;;;;8.27;5.70;;;2.90;96.40;;;;;;4341557;33;20210;-60
2021/04/14 02:52:44;;;;;;;7.33;6.23;;;2.90;96.70;;;;;;4336262;33;20201;-61
2021/04/14 02:55:12;;;;;;;10.43;6.50;;;2.90;96.80;;;;;;4332928;33;20208;-59
2021/04/14 02:57:42;;;;;;;8.37;6.37;;;2.90;96.80;;;;;;4341147;33;20244;-60
2021/04/14 03:00:10;;;;;;;9.20;6.90;;;2.80;96.70;;;;;;4341258;33;20331;-62
2021/04/14 03:02:36;;;;;;;8.57;6.80;;;2.80;96.90;;;;;;4344773;33;20250;-60
2021/04/14 03:05:05;;;;;;;8.10;6.43;;;2.90;96.90;;;;;;4345090;33;20212;-62
2021/04/14 03:07:32;;;;;;;10.30;7.57;;;2.90;96.70;;;;;;4341505;33;20195;-62
2021/04/14 03:09:58;;;;;;;7.87;5.90;;;2.90;96.60;;;;;;4345776;33;20252;-60
2021/04/14 03:12:24;;;;;;;9.47;6.40;;;2.90;96.70;;;;;;4342243;33;20217;-60
2021/04/14 03:14:51;;;;;;;9.30;6.33;;;3.00;96.60;;;;;;4341729;33;20180;-62
2021/04/14 03:17:17;;;;;;;12.70;6.13;;;3.00;96.70;;;;;;4334305;32;20232;-60
2021/04/14 03:19:43;;;;;;;8.77;6.27;;;3.00;97.00;;;;;;4343917;33;20255;-60
2021/04/14 03:22:11;;;;;;;7.60;6.47;;;3.10;96.80;;;;;;4345709;33;20220;-59
2021/04/14 03:24:37;;;;;;;9.70;6.60;;;3.10;96.80;;;;;;4342981;33;20157;-61
2021/04/14 03:27:04;;;;;;;8.50;6.67;;;3.10;96.60;;;;;;4338117;33;20199;-57
2021/04/14 03:29:31;;;;;;;11.07;7.03;;;3.10;96.60;;;;;;4341703;33;20157;-61
2021/04/14 03:31:57;;;;;;;10.53;6.60;;;3.10;96.70;;;;;;4342651;33;20161;-59
2021/04/14 03:34:23;;;;;;;11.17;6.80;;;3.10;96.70;;;;;;4342620;33;20161;-58
2021/04/14 03:36:52;;;;;;;8.97;6.20;;;3.10;96.40;;;;;;4342623;33;20548;-60
2021/04/14 03:39:20;;;;;;;11.63;7.20;;;3.10;96.50;;;;;;4345434;33;20229;-60
2021/04/14 03:41:47;;;;;;;8.50;7.30;;;3.00;96.80;;;;;;4345613;33;20176;-61
2021/04/14 03:44:15;;;;;;;10.17;7.53;;;2.90;96.90;;;;;;4336195;33;20249;-59
2021/04/14 03:46:43;;;;;;;11.73;6.53;;;2.90;97.10;;;;;;4335974;32;20173;-60
2021/04/14 03:49:17;;;;;;;11.20;6.80;;;2.80;97.20;;;;;;4339910;33;20269;-59
2021/04/14 03:51:43;;;;;;;8.60;6.97;;;2.80;97.30;;;;;;4336811;33;20169;-61
2021/04/14 03:54:09;;;;;;;10.63;8.07;;;2.80;97.40;;;;;;4337350;33;20544;-59
2021/04/14 03:56:36;;;;;;;11.37;7.70;;;2.80;97.40;;;;;;4332450;33;20242;-60
2021/04/14 03:59:03;;;;;;;11.73;7.80;;;2.80;97.60;;;;;;4331406;33;20213;-60
2021/04/14 04:01:31;;;;;;;9.83;7.90;;;2.80;97.50;;;;;;4344585;33;20294;-59
2021/04/14 04:03:59;;;;;;;11.07;7.60;;;2.80;97.60;;;;;;4344644;33;20164;-63
2021/04/14 04:06:26;;;;;;;15.10;8.43;;;2.90;97.20;;;;;;4337952;33;20236;-60
2021/04/14 04:08:52;;;;;;;9.57;7.80;;;2.90;97.30;;;;;;4337231;33;20549;-61
2021/04/14 04:11:21;;;;;;;11.27;7.90;;;3.00;97.40;;;;;;4343730;33;20166;-61
2021/04/14 04:13:50;;;;;;;11.27;8.80;;;3.00;97.40;;;;;;4341930;33;20175;-57
2021/04/14 04:16:23;;;;;;;11.90;8.73;;;3.00;97.40;;;;;;4346880;33;20232;-59
2021/04/14 04:18:49;;;;;;;13.27;9.07;;;3.00;97.50;;;;;;4343176;33;20209;-59
2021/04/14 04:21:16;;;;;;;13.37;8.80;;;3.10;97.30;;;;;;4347675;33;20181;-59
2021/04/14 04:23:43;;;;;;;12.13;8.97;;;3.10;97.20;;;;;;4343927;33;20181;-57
2021/04/14 04:26:09;;;;;;;13.03;8.80;;;3.20;97.20;;;;;;4342075;33;20191;-61
2021/04/14 04:28:35;;;;;;;11.83;8.80;;;3.20;97.30;;;;;;4343783;32;20494;-58
2021/04/14 04:31:03;;;;;;;11.43;8.47;;;3.20;97.30;;;;;;4344919;33;20205;-60
2021/04/14 04:33:29;;;;;;;10.20;8.17;;;3.20;97.30;;;;;;4340321;33;20252;-61
2021/04/14 04:35:56;;;;;;;11.70;8.93;;;3.20;97.20;;;;;;4345404;33;20224;-60
2021/04/14 04:38:23;;;;;;;11.07;8.17;;;3.10;97.40;;;;;;4342239;33;20241;-62
2021/04/14 04:40:49;;;;;;;12.37;9.67;;;3.10;97.30;;;;;;4345502;33;20184;-59
2021/04/14 04:43:18;;;;;;;15.07;9.73;;;3.10;97.30;;;;;;4347328;33;20220;-60
2021/04/14 04:45:44;;;;;;;13.33;10.20;;;3.20;97.50;;;;;;4340650;33;20173;-61
2021/04/14 04:48:12;;;;;;;13.63;8.90;;;3.20;97.50;;;;;;4342305;33;20157;-59
2021/04/14 04:50:39;;;;;;;13.47;10.70;;;3.20;97.60;;;;;;4348663;32;20196;-60
2021/04/14 04:53:08;;;;;;;16.63;10.37;;;3.30;97.60;;;;;;4344503;33;20175;-60
2021/04/14 04:55:35;;;;;;;12.43;10.93;;;3.30;97.60;;;;;;4332538;33;20165;-58
2021/04/14 04:58:01;;;;;;;13.83;9.13;;;3.30;97.50;;;;;;4338344;33;20165;-59
2021/04/14 05:00:28;;;;;;;15.13;10.00;;;3.30;97.00;;;;;;4340108;33;20518;-61
2021/04/14 05:02:55;;;;;;;13.47;9.37;;;3.30;96.40;;;;;;4334852;33;20209;-61
2021/04/14 05:05:25;;;;;;;12.83;9.33;;;3.20;96.50;;;;;;4345219;33;20161;-63
2021/04/14 05:07:51;;;;;;;10.97;9.03;;;3.20;96.60;;;;;;4345982;33;20593;-60
2021/04/14 05:10:18;;;;;;;14.67;9.30;;;3.30;96.80;;;;;;4341823;33;20172;-58
2021/04/14 05:12:48;;;;;;;12.33;9.97;;;3.40;97.10;;;;;;4343419;33;20172;-64
2021/04/14 05:15:15;;;;;;;13.77;9.33;;;3.40;97.10;;;;;;4333646;33;20526;-61
2021/04/14 05:17:41;;;;;;;12.03;8.97;;;3.40;96.80;;;;;;4335302;33;20240;-60
2021/04/14 05:20:08;;;;;;;10.17;8.00;;;3.40;96.50;;;;;;4339693;33;20206;-61
2021/04/14 05:22:37;;;;;;;10.20;8.37;;;3.40;96.20;;;;;;4347067;33;20180;-58
2021/04/14 05:25:06;;;;;;;13.93;9.00;;;3.50;96.00;;;;;;4345098;32;20165;-59
2021/04/14 05:27:32;;;;;;;12.27;8.67;;;3.50;96.40;;;;;;4333450;33;20181;-61
2021/04/14 05:29:58;;;;;;;12.87;8.93;;;3.50;96.20;;;;;;4340939;33;20219;-60
2021/04/14 05:32:25;;;;;;;11.47;8.30;;;3.60;95.90;;;;;;4343938;33;20663;-58
2021/04/14 05:34:52;;;;;;;12.73;7.83;;;3.60;95.80;;;;;;4345944;33;20656;-61
2021/04/14 05:37:18;;;;;;;12.93;7.80;;;3.70;96.10;;;;;;4347501;32;20217;-57
2021/04/14 05:39:45;;;;;;;12.57;8.33;;;3.80;96.10;;;;;;4343961;33;20208;-59
2021/04/14 05:42:12;;;;;;;10.50;7.60;;;4.00;96.10;;;;;;4345179;33;20589;-60
2021/04/14 05:44:38;;;;;;;12.90;8.03;;;4.30;95.90;;;;;;4344730;33;20215;-61
2021/04/14 05:47:05;;;;;;;11.47;8.33;;;4.50;95.50;;;;;;4345420;33;20513;-61
2021/04/14 05:49:31;;;;;;;10.57;8.10;;;4.80;95.10;;;;;;4342667;33;20239;-59
2021/04/14 05:51:58;;;;;;;11.37;8.17;;;5.10;94.50;;;;;;4344162;33;20154;-61
2021/04/14 05:54:24;;;;;;;10.20;8.20;;;5.40;94.10;;;;;;4345688;33;20568;-59
2021/04/14 05:56:51;;;;;;;12.10;8.30;;;5.60;93.40;;;;;;4343674;33;20619;-61
2021/04/14 05:59:18;;;;;;;15.03;10.43;;;5.70;93.10;;;;;;4343096;33;20251;-62
2021/04/14 06:01:47;;;;;;;15.47;9.03;;;5.90;92.80;;;;;;4345311;33;20161;-59
2021/04/14 06:04:13;;;;;;;13.43;8.53;;;6.10;92.70;;;;;;4344596;33;20215;-61
2021/04/14 06:06:43;;;;;;;13.37;8.23;;;6.30;92.40;;;;;;4344530;33;20158;-60
2021/04/14 06:09:09;;;;;;;15.37;7.47;;;6.60;91.70;;;;;;4342196;33;20200;-59
2021/04/14 06:11:36;;;;;;;8.73;7.60;;;6.90;91.00;;;;;;4345386;33;20214;-60
2021/04/14 06:14:04;;;;;;;9.47;7.10;;;7.10;90.80;;;;;;4344762;33;20217;-63
2021/04/14 06:16:30;;;;;;;10.37;6.83;;;7.30;90.20;;;;;;4341799;33;20622;-60
2021/04/14 06:18:57;;;;;;;10.43;6.83;;;6.80;87.60;;;;;;4344848;33;20224;-62
2021/04/14 06:21:25;;;;;;;11.77;6.90;;;6.50;88.80;;;;;;4343659;33;20551;-61
2021/04/14 06:23:52;;;;;;;10.27;7.47;;;6.30;89.70;;;;;;4344808;33;20219;-62
2021/04/14 06:26:27;;;;;;;12.43;7.90;;;6.30;90.20;;;;;;4344370;33;20201;-62
2021/04/14 06:28:54;;;;;;;11.60;8.30;;;6.30;90.20;;;;;;4343930;33;20333;-62
2021/04/14 06:31:25;;;;;;;15.47;9.40;;;6.30;89.50;;;;;;4341040;33;20500;-60
2021/04/14 06:33:53;;;;;;;13.60;9.27;;;6.30;90.10;;;;;;4344277;33;20601;-59
2021/04/14 06:36:19;;;;;;;14.67;9.17;;;6.20;90.40;;;;;;4344726;32;20462;-60
2021/04/14 06:38:51;;;;;;;13.00;8.90;;;6.00;90.70;;;;;;4342419;33;20216;-57
2021/04/14 06:41:43;;;;;;;14.53;9.00;;;6.00;91.20;;;;;;4344263;33;20216;-59
2021/04/14 06:44:18;;;;;;;11.93;8.80;;;6.10;91.40;;;;;;4342012;33;20169;-59
2021/04/14 06:46:57;;;;;;;14.67;8.63;;;6.00;91.70;;;;;;4335502;33;20243;-59
2021/04/14 06:49:43;;;;;;;12.80;8.80;;;5.90;91.80;;;;;;4327295;32;20489;-60
2021/04/14 06:52:16;;;;;;;14.77;9.17;;;6.10;91.90;;;;;;4346094;33;20265;-58
2021/04/14 06:54:49;;;;;;;18.07;10.53;;;6.10;91.90;;;;;;4344276;33;20531;-58
2021/04/14 06:57:19;;;;;;;19.17;10.80;;;6.10;92.10;;;;;;4341100;33;20594;-60
2021/04/14 06:59:49;;;;;;;19.23;12.50;;;5.80;92.70;;;;;;4346571;33;20223;-59
2021/04/14 07:02:22;;;;;;;18.93;13.03;;;5.50;93.20;;;;;;4346024;32;20267;-60
2021/04/14 07:05:27;;;;;;;23.17;12.93;;;5.40;93.80;;;;;;4349222;32;20490;-60
2021/04/14 07:07:57;;;;;;;24.40;14.27;;;5.30;94.40;;;;;;4341833;32;20155;-60
2021/04/14 07:10:28;;;;;;;25.70;15.87;;;5.00;95.80;;;;;;4344782;32;20164;-60
2021/04/14 07:13:02;;;;;;;24.83;15.10;;;4.90;97.20;;;;;;4342213;32;20180;-59
2021/04/14 07:15:29;;;;;;;28.90;15.80;;;4.70;98.10;;;;;;4338656;33;20210;-62
2021/04/14 07:18:24;;;;;;;31.87;16.43;;;4.60;98.70;;;;;;4344595;32;20201;-60
2021/04/14 07:21:01;;;;;;;30.57;18.00;;;4.70;99.00;;;;;;4343752;33;20621;-61
2021/04/14 07:23:43;;;;;;;26.80;16.97;;;4.70;99.30;;;;;;4342036;33;20192;-62
2021/04/14 07:26:16;;;;;;;27.80;15.80;;;4.60;99.70;;;;;;4343018;33;20188;-60
2021/04/14 07:29:08;;;;;;;27.47;17.47;;;4.70;99.70;;;;;;4344617;33;20181;-58
2021/04/14 07:31:41;;;;;;;28.37;16.90;;;4.80;99.90;;;;;;4338252;33;20196;-62
2021/04/14 07:34:37;;;;;;;24.67;15.13;;;4.90;99.90;;;;;;4343164;33;20167;-58
2021/04/14 07:37:11;;;;;;;22.47;13.73;;;5.40;99.50;;;;;;4342086;33;20177;-60
2021/04/14 07:39:45;;;;;;;20.00;11.97;;;5.90;98.60;;;;;;4346179;33;20158;-60
2021/04/14 07:42:23;;;;;;;22.63;12.90;;;6.20;97.20;;;;;;4347889;32;20505;-59
2021/04/14 07:45:02;;;;;;;17.23;12.37;;;6.60;96.40;;;;;;4343297;33;20192;-60
2021/04/14 07:47:29;;;;;;;19.13;10.70;;;6.70;95.30;;;;;;4344155;33;20200;-59
2021/04/14 07:49:59;;;;;;;14.57;10.30;;;7.20;95.20;;;;;;4341131;33;20175;-60
2021/04/14 07:52:30;;;;;;;16.57;9.63;;;7.50;93.80;;;;;;4344032;33;20705;-60
2021/04/14 07:55:00;;;;;;;13.63;8.30;;;8.60;93.00;;;;;;4343540;33;20180;-59
2021/04/14 07:57:46;;;;;;;12.10;7.70;;;10.90;86.70;;;;;;4342233;33;20223;-60
2021/04/14 08:00:33;;;;;;;10.07;7.33;;;13.80;75.80;;;;;;4342430;33;20203;-62
2021/04/14 08:03:09;;;;;;;10.87;7.63;;;17.30;62.00;;;;;;4333704;33;20196;-61
2021/04/14 08:05:37;;;;;;;16.37;7.77;;;19.40;56.00;;;;;;4342497;33;20157;-58
2021/04/14 08:08:14;;;;;;;11.20;7.17;;;22.80;46.30;;;;;;4341579;33;20326;-60
2021/04/14 08:10:55;;;;;;;9.17;7.10;;;25.20;40.50;;;;;;4344190;33;20177;-63
2021/04/14 08:13:26;;;;;;;10.17;6.77;;;27.40;37.20;;;;;;4343890;33;20161;-59
2021/04/14 08:15:53;;;;;;;9.87;7.03;;;29.70;33.80;;;;;;4343671;33;20164;-60
2021/04/14 08:18:25;;;;;;;10.40;7.50;;;28.50;33.40;;;;;;4341626;33;20228;-60
2021/04/14 08:21:15;;;;;;;11.37;8.67;;;25.60;35.50;;;;;;4342302;33;20505;-60
2021/04/14 08:23:53;;;;;;;9.93;7.80;;;22.70;38.90;;;;;;4342789;33;20236;-60
2021/04/14 08:26:23;;;;;;;11.87;8.77;;;20.10;44.10;;;;;;4342993;33;20215;-60
2021/04/14 08:28:51;;;;;;;11.17;8.53;;;18.30;48.10;;;;;;4342082;33;20295;-63
2021/04/14 08:31:34;;;;;;;13.40;9.57;;;16.80;54.20;;;;;;4345083;33;20189;-63
2021/04/14 08:34:12;;;;;;;12.33;8.80;;;15.70;57.30;;;;;;4339901;33;20153;-59
2021/04/14 08:36:46;;;;;;;11.03;8.37;;;14.90;60.40;;;;;;4345332;33;20176;-63
2021/04/14 08:39:16;;;;;;;14.87;8.70;;;14.80;63.50;;;;;;4342320;33;20593;-61
2021/04/14 08:41:43;;;;;;;12.67;9.23;;;16.20;60.70;;;;;;4346653;33;20227;-61
2021/04/14 08:44:13;;;;;;;12.37;9.57;;;17.50;56.40;;;;;;4347490;33;20569;-60
2021/04/14 08:46:40;;;;;;;11.23;8.63;;;19.20;53.50;;;;;;4345431;33;20271;-61
2021/04/14 08:49:14;;;;;;;12.63;8.23;;;20.90;45.40;;;;;;4344957;33;20582;-60
2021/04/14 08:51:43;;;;;;;13.30;8.63;;;23.70;43.20;;;;;;4333807;33;20243;-60
2021/04/14 08:54:14;;;;;;;12.73;9.10;;;27.60;36.80;;;;;;4337524;33;20220;-60
2021/04/14 08:56:40;;;;;;;11.20;9.33;;;27.00;33.70;;;;;;4342785;33;20180;-61
2021/04/14 08:59:08;;;;;;;15.87;9.47;;;27.50;34.50;;;;;;4339982;33;20268;-63
2021/04/14 09:01:34;;;;;;;13.37;10.30;;;27.60;33.60;;;;;;4339805;33;20232;-59
2021/04/14 09:04:01;;;;;;;13.03;10.20;;;25.40;34.50;;;;;;4345214;33;20169;-61
2021/04/14 09:06:31;;;;;;;15.37;10.00;;;23.10;37.40;;;;;;4341482;33;20209;-61
2021/04/14 09:09:05;;;;;;;12.70;9.53;;;20.60;40.90;;;;;;4344256;33;20169;-62
2021/04/14 09:11:32;;;;;;;13.07;9.43;;;19.10;45.50;;;;;;4336351;32;20158;-61
2021/04/14 09:14:02;;;;;;;12.50;9.40;;;18.30;48.80;;;;;;4343972;33;20161;-61
2021/04/14 09:16:33;;;;;;;14.90;10.27;;;17.60;52.00;;;;;;4344458;33;20260;-60
2021/04/14 09:19:31;;;;;;;13.33;10.20;;;16.80;53.60;;;;;;4346468;33;20192;-62
2021/04/14 09:22:01;;;;;;;15.13;9.90;;;15.50;57.00;;;;;;4344006;33;20157;-59
2021/04/14 09:24:42;;;;;;;15.37;9.73;;;14.80;59.30;;;;;;4344833;33;20474;-63
2021/04/14 09:27:26;;;;;;;13.27;9.67;;;14.40;61.70;;;;;;4342289;33;20180;-60
2021/04/14 09:30:00;;;;;;;12.23;9.20;;;14.40;63.20;;;;;;4343156;32;20225;-59
2021/04/14 09:32:51;;;;;;;14.43;9.03;;;14.10;62.00;;;;;;4345047;32;20155;-60
2021/04/14 09:35:21;;;;;;;15.33;9.43;;;13.90;62.00;;;;;;4346616;33;20267;-60
2021/04/14 09:37:48;;;;;;;13.30;8.30;;;13.70;63.60;;;;;;4345826;32;20225;-60
2021/04/14 09:40:28;;;;;;;15.07;9.70;;;13.60;65.00;;;;;;4346611;33;20200;-64
2021/04/14 09:42:55;;;;;;;16.10;10.00;;;13.50;67.10;;;;;;4346518;33;20183;-62
2021/04/14 09:45:36;;;;;;;11.97;9.80;;;12.90;67.80;;;;;;4345519;32;20187;-60
2021/04/14 09:48:16;;;;;;;13.97;9.70;;;11.90;71.00;;;;;;4345833;32;20587;-61
2021/04/14 09:50:45;;;;;;;13.23;10.10;;;11.00;74.00;;;;;;4345668;33;20215;-61
2021/04/14 09:53:31;;;;;;;15.90;10.77;;;10.30;76.30;;;;;;4344146;33;20248;-59
2021/04/14 09:56:08;;;;;;;15.23;11.23;;;9.70;79.40;;;;;;4343014;33;20198;-63
2021/04/14 09:58:42;;;;;;;15.57;10.73;;;9.30;81.50;;;;;;4346388;33;20504;-61
2021/04/14 10:01:19;;;;;;;15.83;10.73;;;8.90;84.50;;;;;;4342664;33;20176;-63
2021/04/14 10:03:47;;;;;;;16.63;10.77;;;8.50;86.30;;;;;;4344706;33;20597;-62
2021/04/14 10:06:19;;;;;;;14.70;9.87;;;8.20;88.90;;;;;;4346445;33;20219;-61
2021/04/14 10:08:47;;;;;;;17.17;9.93;;;7.60;90.50;;;;;;4345622;33;20157;-60
2021/04/14 10:11:34;;;;;;;18.63;10.73;;;7.50;91.30;;;;;;4345932;33;20542;-61
2021/04/14 10:14:12;;;;;;;13.50;9.77;;;7.30;92.00;;;;;;4343871;33;20231;-60
2021/04/14 10:16:38;;;;;;;13.53;9.03;;;7.10;92.60;;;;;;4343009;32;20172;-61
2021/04/14 10:19:07;;;;;;;13.97;8.23;;;7.00;93.00;;;;;;4343877;33;20240;-62
2021/04/14 10:21:36;;;;;;;13.93;9.13;;;7.00;93.60;;;;;;4345118;33;20221;-61
2021/04/14 10:24:06;;;;;;;13.30;9.17;;;7.00;94.00;;;;;;4345511;33;20211;-63
2021/04/14 10:26:36;;;;;;;14.00;9.17;;;7.10;94.50;;;;;;4344191;33;20602;-61
2021/04/14 10:29:07;;;;;;;14.27;9.20;;;7.20;94.30;;;;;;4346495;33;20501;-60
2021/04/14 10:31:38;;;;;;;16.17;9.43;;;7.30;93.70;;;;;;4344103;33;20184;-60
2021/04/14 10:34:10;;;;;;;12.00;9.73;;;7.40;93.70;;;;;;4347078;33;20457;-62
2021/04/14 10:36:39;;;;;;;16.80;10.80;;;7.60;93.60;;;;;;4342737;33;20471;-62
2021/04/14 10:39:28;;;;;;;17.63;9.90;;;7.80;93.60;;;;;;4340438;33;20222;-64
2021/04/14 10:42:01;;;;;;;13.70;10.17;;;8.00;92.90;;;;;;4345196;33;20165;-60
2021/04/14 10:44:32;;;;;;;14.33;9.00;;;8.40;92.50;;;;;;4345508;33;20573;-60
2021/04/14 10:47:04;;;;;;;16.63;9.23;;;8.70;91.50;;;;;;4342640;32;20186;-59
2021/04/14 10:49:33;;;;;;;13.63;9.00;;;9.20;91.00;;;;;;4344827;33;20501;-59
2021/04/14 10:52:10;;;;;;;17.30;8.37;;;9.60;90.50;;;;;;4345958;33;20230;-60
2021/04/14 10:54:42;;;;;;;12.73;6.83;;;9.70;89.30;;;;;;4340012;33;20195;-61
2021/04/14 10:57:14;;;;;;;9.43;5.60;;;9.70;87.70;;;;;;4341819;33;20278;-60
2021/04/14 10:59:41;;;;;;;8.53;5.47;;;10.00;85.30;;;;;;4333490;33;20558;-60
2021/04/14 11:02:18;;;;;;;5.53;3.90;;;10.40;82.90;;;;;;4341942;33;20232;-60
2021/04/14 11:04:47;;;;;;;6.70;4.00;;;10.40;80.00;;;;;;4344976;33;20179;-61
2021/04/14 11:07:17;;;;;;;7.07;3.10;;;10.90;79.40;;;;;;4341303;33;20493;-60
2021/04/14 11:09:47;;;;;;;5.57;1.90;;;11.20;76.80;;;;;;4342912;32;20160;-63
2021/04/14 11:12:17;;;;;;;3.23;1.50;;;10.50;71.30;;;;;;4338452;32;20487;-59
2021/04/14 11:14:46;;;;;;;4.80;1.83;;;9.60;69.20;;;;;;4342799;33;20667;-61
2021/04/14 11:17:18;;;;;;;5.07;1.47;;;9.10;75.20;;;;;;4344503;32;20224;-61
2021/04/14 11:19:53;;;;;;;4.33;1.90;;;9.30;73.90;;;;;;4342500;33;20161;-60
2021/04/14 11:22:22;;;;;;;5.17;1.47;;;9.40;76.50;;;;;;4341824;33;20187;-60
2021/04/14 11:24:50;;;;;;;2.60;1.10;;;9.90;75.00;;;;;;4344236;33;20180;-61
2021/04/14 11:27:23;;;;;;;3.27;1.20;;;10.30;73.20;;;;;;4339813;33;20243;-59
2021/04/14 11:29:51;;;;;;;3.37;0.90;;;10.80;72.40;;;;;;4336356;33;20220;-60
2021/04/14 11:32:23;;;;;;;4.37;1.10;;;10.80;70.30;;;;;;4338381;33;20162;-60
2021/04/14 11:34:59;;;;;;;2.67;1.40;;;10.70;68.40;;;;;;4341072;32;20247;-62
2021/04/14 11:37:40;;;;;;;2.40;1.03;;;10.60;68.00;;;;;;4340349;33;20165;-61
2021/04/14 11:40:14;;;;;;;1.80;1.00;;;10.20;67.00;;;;;;4336044;33;20208;-60
2021/04/14 11:42:53;;;;;;;2.47;0.93;;;9.80;64.30;;;;;;4338208;33;20165;-61
2021/04/14 11:45:25;;;;;;;2.50;0.70;;;9.60;62.80;;;;;;4338816;33;20204;-61
2021/04/14 11:47:51;;;;;;;1.00;0.70;;;9.70;65.30;;;;;;4343183;33;20242;-59
2021/04/14 11:50:29;;;;;;;2.50;0.60;;;10.20;60.90;;;;;;4344110;33;20215;-60
2021/04/14 11:52:58;;;;;;;1.83;0.83;;;10.10;57.30;;;;;;4342822;33;20188;-60
2021/04/14 11:55:29;;;;;;;4.73;0.80;;;10.50;60.20;;;;;;4338166;33;20228;-62
2021/04/14 11:58:00;;;;;;;1.97;0.87;;;10.80;60.00;;;;;;4337931;33;20165;-59
2021/04/14 12:00:30;;;;;;;1.47;0.70;;;10.90;58.10;;;;;;4341991;33;20162;-60
2021/04/14 12:03:01;;;;;;;2.00;0.83;;;11.00;57.70;;;;;;4342132;33;20161;-61
2021/04/14 12:05:28;;;;;;;2.10;0.80;;;10.90;56.30;;;;;;4343444;33;20568;-60
2021/04/14 12:07:54;;;;;;;2.73;0.77;;;10.80;57.80;;;;;;4343354;33;20193;-58
2021/04/14 12:10:21;;;;;;;3.33;1.00;;;10.90;59.50;;;;;;4342564;33;20189;-60
2021/04/14 12:12:48;;;;;;;5.73;0.90;;;10.90;57.60;;;;;;4343099;33;20244;-61
2021/04/14 12:15:17;;;;;;;4.27;1.13;;;10.70;59.80;;;;;;4343404;33;20191;-61
2021/04/14 12:17:45;;;;;;;1.83;0.60;;;10.50;60.10;;;;;;4339365;33;20213;-61
2021/04/14 12:20:13;;;;;;;3.17;0.60;;;10.30;59.10;;;;;;4342449;33;20235;-60
2021/04/14 12:22:41;;;;;;;0.87;0.43;;;9.70;56.70;;;;;;4343091;33;20208;-60
2021/04/14 12:25:10;;;;;;;0.50;0.40;;;9.50;56.90;;;;;;4341145;33;20629;-60
2021/04/14 12:27:37;;;;;;;0.97;0.50;;;9.80;55.40;;;;;;4339739;33;20541;-60
2021/04/14 12:30:06;;;;;;;1.50;0.40;;;10.50;55.00;;;;;;4343031;33;20487;-60
2021/04/14 12:32:33;;;;;;;0.30;0.30;;;11.20;51.00;;;;;;4344451;33;20157;-60
2021/04/14 12:35:00;;;;;;;2.10;0.60;;;11.40;53.70;;;;;;4339923;33;20194;-60
2021/04/14 12:37:29;;;;;;;1.33;0.33;;;11.10;51.50;;;;;;4336745;33;20649;-61
2021/04/14 12:39:55;;;;;;;3.33;0.70;;;10.70;56.20;;;;;;4344790;33;20289;-61
2021/04/14 12:42:21;;;;;;;4.43;0.60;;;10.40;54.10;;;;;;4345323;33;20589;-60
2021/04/14 12:44:50;;;;;;;3.47;0.63;;;10.40;53.70;;;;;;4347180;33;20185;-60
2021/04/14 12:47:22;;;;;;;1.20;0.50;;;10.20;51.80;;;;;;4345886;33;20162;-61
2021/04/14 12:49:53;;;;;;;3.30;0.70;;;9.90;54.10;;;;;;4340701;33;20157;-61
2021/04/14 12:52:25;;;;;;;2.53;0.67;;;10.00;54.70;;;;;;4349288;33;20178;-60
2021/04/14 12:54:56;;;;;;;2.07;0.67;;;10.10;54.30;;;;;;4344924;33;20586;-61
2021/04/14 12:57:25;;;;;;;2.63;0.70;;;10.30;54.70;;;;;;4347965;33;20168;-61
2021/04/14 12:59:56;;;;;;;0.63;0.37;;;10.40;56.60;;;;;;4345059;33;20156;-60
2021/04/14 13:02:25;;;;;;;1.87;0.60;;;10.40;56.00;;;;;;4345503;33;20176;-60